• Join FlightAware (Why Join?)
  • Login
  • US Flag 
04:46PM EST


 

Airport Tracker/Info


-or-


 

Live Flight TrackerFlight Track Log ✈ MTN8305 ✈ 16-Jul-2013 ✈ KEWR - KBWI

Flight Track Log - Related Links

Times and Time Zones

All times are in EDT time to prevent confusion due to time zone crossing. See the MTN8305 flight status page for this flight to view local times or setup timezone preferences in your user account.

Time Position Orientation Groundspeed Altitude Reporting Facility
EDT Latitude Longitude Course Direction KTS MPH feet Rate Location/Type
04:08AM 40.7000 -74.1667 323° Northwest 83 96 500  Level New York TRACON
04:09AM 40.7167 -74.1833 323° Northwest 112 129 1,100 720 Climbing New York TRACON
04:10AM 40.7000 -74.2167 237° Southwest 122 140 1,900 840 Climbing New York TRACON
04:11AM 40.7000 -74.2667 270° West 123 142 2,800 780 Climbing New York TRACON
04:12AM 40.6833 -74.3167 246° West 125 144 3,500 600 Climbing New York TRACON
04:13AM 40.6833 -74.3667 270° West 133 153 4,000 240 Climbing New York TRACON
04:14AM 40.6667 -74.4000 237° Southwest 156 180 4,000  Level New York TRACON
04:15AM 40.6667 -74.4667 270° West 159 183 4,000  Level New York TRACON
04:16AM 40.6500 -74.5167 246° West 161 185 4,000  Level New York TRACON
04:17AM 40.6500 -74.5667 270° West 162 186 4,000  Level New York TRACON
04:18AM 40.6333 -74.6333 252° West 162 186 4,000  Level New York TRACON
04:20AM 40.5891 -74.6998 229° Southwest  Level FlightAware Approximate
04:27AM 40.5497 -75.0526 261° West  Level FlightAware Approximate
04:27AM 40.5500 -75.1833 212° Southwest 160 184 4,000  Level Philadelphia TRACON
04:28AM 40.5435 -75.1024 261° West  Level FlightAware Approximate
04:28AM 40.5500 -75.2500 270° West 163 188 3,900  Level Philadelphia TRACON
04:29AM 40.5372 -75.1523 261° West  Level FlightAware Approximate
04:29AM 40.5167 -75.2833 217° Southwest 178 205 4,000  Level Philadelphia TRACON
04:30AM 40.5057 -75.1883 218° Southwest  Level Estimated
04:30AM 40.4667 -75.3167 207° Southwest 174 200 4,000  Level Philadelphia TRACON
04:31AM 40.4702 -75.2174 212° Southwest  Level FlightAware Approximate
04:31AM 40.4167 -75.3333 194° South 176 203 4,000  Level Philadelphia TRACON
04:32AM 40.4348 -75.2464 212° Southwest  Level FlightAware Approximate
04:32AM 40.3833 -75.3667 217° Southwest 171 197 4,000  Level Philadelphia TRACON
04:33AM 40.3333 -75.4000 207° Southwest 168 193 4,000  Level Philadelphia TRACON
04:34AM 40.3000 -75.4167 201° Southwest 168 193 4,000  Level Philadelphia TRACON
04:35AM 40.2500 -75.4500 207° Southwest 168 193 4,000  Level Philadelphia TRACON
04:36AM 40.2167 -75.4833 217° Southwest 167 192 4,000  Level Philadelphia TRACON
04:37AM 40.1667 -75.5000 194° South 167 192 4,000  Level Philadelphia TRACON
04:38AM 40.1333 -75.5333 217° Southwest 167 192 4,000  Level Philadelphia TRACON
04:39AM 40.0833 -75.5667 207° Southwest 166 191 4,000  Level Philadelphia TRACON
04:40AM 40.0500 -75.5833 201° Southwest 167 192 4,000  Level Philadelphia TRACON
04:41AM 40.0000 -75.6167 207° Southwest 169 194 4,000  Level Philadelphia TRACON
04:42AM 39.9667 -75.6333 201° Southwest 165 190 4,000  Level Philadelphia TRACON
04:43AM 39.9333 -75.6667 217° Southwest 164 189 4,000  Level Philadelphia TRACON
04:44AM 39.9000 -75.7167 229° Southwest 157 181 4,000  Level Philadelphia TRACON
04:45AM 39.8667 -75.7667 229° Southwest 159 183 4,000  Level Philadelphia TRACON
04:46AM 39.8500 -75.8000 237° Southwest 160 184 4,000  Level Philadelphia TRACON
04:47AM 39.8167 -75.8500 229° Southwest 159 183 4,000  Level Philadelphia TRACON
04:49AM 39.7833 -75.9333 243° Southwest 165 190 4,000  Level Potomac TRACON
04:50AM 39.7500 -75.9833 229° Southwest 159 183 4,000  Level Potomac TRACON
04:51AM 39.7333 -76.0333 247° West 159 183 4,000  Level Potomac TRACON
04:52AM 39.7000 -76.0833 229° Southwest 161 185 4,000  Level Potomac TRACON
04:53AM 39.6667 -76.1167 218° Southwest 160 184 4,000  Level Potomac TRACON
04:54AM 39.6333 -76.1500 218° Southwest 162 186 4,000  Level Potomac TRACON
04:55AM 39.6000 -76.2000 229° Southwest 162 186 4,000  Level Potomac TRACON
04:56AM 39.5667 -76.2333 218° Southwest 161 185 4,000  Level Potomac TRACON
04:57AM 39.5333 -76.2667 218° Southwest 162 186 4,000  Level Potomac TRACON
04:58AM 39.5000 -76.3000 218° Southwest 163 188 4,000  Level Potomac TRACON
04:59AM 39.4667 -76.3500 229° Southwest 162 186 4,000  Level Potomac TRACON
05:00AM 39.4333 -76.3833 218° Southwest 162 186 4,000  Level Potomac TRACON
05:01AM 39.4000 -76.4333 229° Southwest 162 186 4,000 -120 Level Potomac TRACON
05:02AM 39.3667 -76.4667 218° Southwest 171 197 3,800 -240 Descending Potomac TRACON
05:03AM 39.3167 -76.5000 207° Southwest 174 200 3,600 -240 Descending Potomac TRACON
05:04AM 39.2833 -76.5333 218° Southwest 176 203 3,400 -300 Descending Potomac TRACON
05:05AM 39.2500 -76.5667 218° Southwest 177 204 3,100 -420 Descending Potomac TRACON
05:06AM 39.2000 -76.6000 207° Southwest 180 207 2,700 -600 Descending Potomac TRACON
05:07AM 39.1667 -76.6167 201° Southwest 188 216 2,000 -900 Descending Potomac TRACON
05:08AM 39.1500 -76.6500 237° Southwest 124 143 900 -1,140 Descending Potomac TRACON
05:10AM 39.1667 -76.6667 270° West  Level FlightAware Approximate
05:17AM 39.1754 -76.6683 270° West  Level Estimated
05:18AM 39.1754 -76.6683 270° West  Level Estimated
05:19AM 39.1754 -76.6683 270° West  Level Estimated
05:20AM 39.1754 -76.6683 270° West  Level Estimated
05:21AM 39.1754 -76.6683 270° West  Level Estimated
05:22AM 39.1754 -76.6683 270° West  Level Estimated
05:23AM 39.1754 -76.6683 270° West  Level Estimated
05:24AM 39.1754 -76.6683 270° West  Level Estimated
05:25AM 39.1754 -76.6683 270° West  Level Estimated